sensor_id;sensor_type;location;lat;lon;timestamp;P1;durP1;ratioP1;P2;durP2;ratioP2
41514;SDS011;27247;48.020;16.720;2024-02-21T00:00:21;9.43;;;3.17;;
41514;SDS011;27247;48.020;16.720;2024-02-21T00:04:31;8.23;;;3.25;;
41514;SDS011;27247;48.020;16.720;2024-02-21T00:08:42;15.80;;;3.72;;
41514;SDS011;27247;48.020;16.720;2024-02-21T00:12:52;10.30;;;3.53;;
41514;SDS011;27247;48.020;16.720;2024-02-21T00:17:02;8.80;;;3.30;;
41514;SDS011;27247;48.020;16.720;2024-02-21T00:21:13;12.68;;;3.58;;
41514;SDS011;27247;48.020;16.720;2024-02-21T00:25:28;16.05;;;3.80;;
41514;SDS011;27247;48.020;16.720;2024-02-21T00:29:38;12.20;;;3.33;;
41514;SDS011;27247;48.020;16.720;2024-02-21T00:33:48;9.30;;;3.80;;
41514;SDS011;27247;48.020;16.720;2024-02-21T00:37:59;9.83;;;3.10;;
41514;SDS011;27247;48.020;16.720;2024-02-21T00:42:09;14.45;;;4.30;;
41514;SDS011;27247;48.020;16.720;2024-02-21T00:46:19;13.30;;;3.75;;
41514;SDS011;27247;48.020;16.720;2024-02-21T00:50:30;15.60;;;3.63;;
41514;SDS011;27247;48.020;16.720;2024-02-21T00:54:40;12.15;;;3.85;;
41514;SDS011;27247;48.020;16.720;2024-02-21T00:58:51;8.77;;;3.30;;
41514;SDS011;27247;48.020;16.720;2024-02-21T01:03:01;14.23;;;3.73;;
41514;SDS011;27247;48.020;16.720;2024-02-21T01:07:11;7.80;;;3.17;;
41514;SDS011;27247;48.020;16.720;2024-02-21T01:11:22;10.80;;;3.30;;
41514;SDS011;27247;48.020;16.720;2024-02-21T01:15:32;13.53;;;4.40;;
41514;SDS011;27247;48.020;16.720;2024-02-21T01:19:43;17.27;;;3.80;;
41514;SDS011;27247;48.020;16.720;2024-02-21T01:23:53;13.67;;;3.87;;
41514;SDS011;27247;48.020;16.720;2024-02-21T01:28:03;9.15;;;4.30;;
41514;SDS011;27247;48.020;16.720;2024-02-21T01:32:14;7.70;;;3.05;;
41514;SDS011;27247;48.020;16.720;2024-02-21T01:36:24;11.23;;;3.13;;
41514;SDS011;27247;48.020;16.720;2024-02-21T01:40:34;8.40;;;3.72;;
41514;SDS011;27247;48.020;16.720;2024-02-21T01:44:45;8.23;;;3.37;;
41514;SDS011;27247;48.020;16.720;2024-02-21T01:48:55;14.17;;;3.67;;
41514;SDS011;27247;48.020;16.720;2024-02-21T01:53:07;23.80;;;5.55;;
41514;SDS011;27247;48.020;16.720;2024-02-21T01:57:18;13.18;;;3.60;;
41514;SDS011;27247;48.020;16.720;2024-02-21T02:01:29;8.27;;;2.50;;
41514;SDS011;27247;48.020;16.720;2024-02-21T02:05:40;13.02;;;3.65;;
41514;SDS011;27247;48.020;16.720;2024-02-21T02:09:51;8.73;;;3.27;;
41514;SDS011;27247;48.020;16.720;2024-02-21T02:14:01;13.45;;;2.95;;
41514;SDS011;27247;48.020;16.720;2024-02-21T02:18:13;8.68;;;3.30;;
41514;SDS011;27247;48.020;16.720;2024-02-21T02:22:28;7.55;;;2.35;;
41514;SDS011;27247;48.020;16.720;2024-02-21T02:26:39;10.43;;;3.33;;
41514;SDS011;27247;48.020;16.720;2024-02-21T02:30:50;8.60;;;3.28;;
41514;SDS011;27247;48.020;16.720;2024-02-21T02:35:00;12.25;;;3.10;;
41514;SDS011;27247;48.020;16.720;2024-02-21T02:39:11;8.70;;;3.57;;
41514;SDS011;27247;48.020;16.720;2024-02-21T02:43:21;12.97;;;3.43;;
41514;SDS011;27247;48.020;16.720;2024-02-21T02:47:31;12.17;;;3.70;;
41514;SDS011;27247;48.020;16.720;2024-02-21T02:51:42;13.77;;;3.53;;
41514;SDS011;27247;48.020;16.720;2024-02-21T02:55:53;14.68;;;3.83;;
41514;SDS011;27247;48.020;16.720;2024-02-21T03:00:04;7.47;;;2.67;;
41514;SDS011;27247;48.020;16.720;2024-02-21T03:04:16;10.93;;;3.92;;
41514;SDS011;27247;48.020;16.720;2024-02-21T03:08:27;9.60;;;3.37;;
41514;SDS011;27247;48.020;16.720;2024-02-21T03:12:37;10.82;;;3.67;;
41514;SDS011;27247;48.020;16.720;2024-02-21T03:16:48;9.20;;;3.80;;
41514;SDS011;27247;48.020;16.720;2024-02-21T03:21:01;12.02;;;3.45;;
41514;SDS011;27247;48.020;16.720;2024-02-21T03:25:11;31.23;;;12.40;;
41514;SDS011;27247;48.020;16.720;2024-02-21T03:29:22;12.77;;;3.10;;
41514;SDS011;27247;48.020;16.720;2024-02-21T03:33:32;7.55;;;3.55;;
41514;SDS011;27247;48.020;16.720;2024-02-21T03:37:44;16.80;;;4.20;;
41514;SDS011;27247;48.020;16.720;2024-02-21T03:41:55;11.07;;;3.95;;
41514;SDS011;27247;48.020;16.720;2024-02-21T03:46:06;7.13;;;2.93;;
41514;SDS011;27247;48.020;16.720;2024-02-21T03:50:16;11.18;;;3.65;;
41514;SDS011;27247;48.020;16.720;2024-02-21T03:54:27;16.97;;;3.80;;
41514;SDS011;27247;48.020;16.720;2024-02-21T03:58:37;12.27;;;3.90;;
41514;SDS011;27247;48.020;16.720;2024-02-21T04:02:47;11.18;;;2.80;;
41514;SDS011;27247;48.020;16.720;2024-02-21T04:06:58;13.90;;;3.10;;
41514;SDS011;27247;48.020;16.720;2024-02-21T04:11:08;11.30;;;3.20;;
41514;SDS011;27247;48.020;16.720;2024-02-21T04:15:18;10.77;;;3.10;;
41514;SDS011;27247;48.020;16.720;2024-02-21T04:19:29;9.35;;;2.90;;
41514;SDS011;27247;48.020;16.720;2024-02-21T04:23:41;14.05;;;3.13;;
41514;SDS011;27247;48.020;16.720;2024-02-21T04:27:51;12.07;;;2.73;;
41514;SDS011;27247;48.020;16.720;2024-02-21T04:32:01;11.45;;;3.97;;
41514;SDS011;27247;48.020;16.720;2024-02-21T04:36:12;8.68;;;3.67;;
41514;SDS011;27247;48.020;16.720;2024-02-21T04:40:23;13.85;;;4.07;;
41514;SDS011;27247;48.020;16.720;2024-02-21T04:44:33;12.75;;;3.00;;
41514;SDS011;27247;48.020;16.720;2024-02-21T04:48:43;11.13;;;3.73;;
41514;SDS011;27247;48.020;16.720;2024-02-21T04:52:54;10.70;;;3.07;;
41514;SDS011;27247;48.020;16.720;2024-02-21T04:57:04;15.03;;;4.20;;
41514;SDS011;27247;48.020;16.720;2024-02-21T05:01:14;10.35;;;3.30;;
41514;SDS011;27247;48.020;16.720;2024-02-21T05:05:26;11.13;;;3.27;;
41514;SDS011;27247;48.020;16.720;2024-02-21T05:09:36;14.15;;;3.83;;
41514;SDS011;27247;48.020;16.720;2024-02-21T05:13:46;8.40;;;3.30;;
41514;SDS011;27247;48.020;16.720;2024-02-21T05:17:57;12.70;;;3.85;;
41514;SDS011;27247;48.020;16.720;2024-02-21T05:22:07;11.20;;;3.30;;
41514;SDS011;27247;48.020;16.720;2024-02-21T05:26:21;7.10;;;3.13;;
41514;SDS011;27247;48.020;16.720;2024-02-21T05:30:32;7.53;;;2.33;;
41514;SDS011;27247;48.020;16.720;2024-02-21T05:34:42;9.57;;;2.60;;
41514;SDS011;27247;48.020;16.720;2024-02-21T05:38:53;9.00;;;2.47;;
41514;SDS011;27247;48.020;16.720;2024-02-21T05:43:03;11.10;;;2.27;;
41514;SDS011;27247;48.020;16.720;2024-02-21T05:47:13;8.85;;;3.10;;
41514;SDS011;27247;48.020;16.720;2024-02-21T05:51:25;7.82;;;2.50;;
41514;SDS011;27247;48.020;16.720;2024-02-21T05:55:35;10.50;;;3.00;;
41514;SDS011;27247;48.020;16.720;2024-02-21T05:59:46;11.07;;;3.20;;
41514;SDS011;27247;48.020;16.720;2024-02-21T06:03:56;5.55;;;2.58;;
41514;SDS011;27247;48.020;16.720;2024-02-21T06:08:07;11.18;;;2.83;;
41514;SDS011;27247;48.020;16.720;2024-02-21T06:12:18;14.73;;;2.85;;
41514;SDS011;27247;48.020;16.720;2024-02-21T06:16:28;7.00;;;2.50;;
41514;SDS011;27247;48.020;16.720;2024-02-21T06:20:38;7.03;;;3.10;;
41514;SDS011;27247;48.020;16.720;2024-02-21T06:24:50;9.82;;;2.83;;
41514;SDS011;27247;48.020;16.720;2024-02-21T06:29:00;9.18;;;2.50;;
41514;SDS011;27247;48.020;16.720;2024-02-21T06:33:11;7.90;;;2.92;;
41514;SDS011;27247;48.020;16.720;2024-02-21T06:37:22;8.47;;;2.53;;
41514;SDS011;27247;48.020;16.720;2024-02-21T06:41:32;6.00;;;2.30;;
41514;SDS011;27247;48.020;16.720;2024-02-21T06:45:44;7.20;;;2.80;;
41514;SDS011;27247;48.020;16.720;2024-02-21T06:49:57;9.18;;;2.70;;
41514;SDS011;27247;48.020;16.720;2024-02-21T06:54:07;9.83;;;3.00;;
41514;SDS011;27247;48.020;16.720;2024-02-21T06:58:18;7.37;;;2.23;;
41514;SDS011;27247;48.020;16.720;2024-02-21T07:02:28;5.73;;;2.80;;
41514;SDS011;27247;48.020;16.720;2024-02-21T07:06:38;7.70;;;3.07;;
41514;SDS011;27247;48.020;16.720;2024-02-21T07:10:48;6.47;;;2.33;;
41514;SDS011;27247;48.020;16.720;2024-02-21T07:14:59;8.23;;;2.73;;
41514;SDS011;27247;48.020;16.720;2024-02-21T07:19:09;5.37;;;2.23;;
41514;SDS011;27247;48.020;16.720;2024-02-21T07:23:19;9.80;;;2.80;;
41514;SDS011;27247;48.020;16.720;2024-02-21T07:27:30;6.20;;;2.13;;
41514;SDS011;27247;48.020;16.720;2024-02-21T07:31:43;7.50;;;2.08;;
41514;SDS011;27247;48.020;16.720;2024-02-21T07:35:54;7.72;;;2.15;;
41514;SDS011;27247;48.020;16.720;2024-02-21T07:40:05;7.10;;;2.20;;
41514;SDS011;27247;48.020;16.720;2024-02-21T07:44:16;8.07;;;2.10;;
41514;SDS011;27247;48.020;16.720;2024-02-21T07:48:26;3.70;;;2.10;;
41514;SDS011;27247;48.020;16.720;2024-02-21T07:52:37;6.18;;;2.20;;
41514;SDS011;27247;48.020;16.720;2024-02-21T07:56:47;7.27;;;2.40;;
41514;SDS011;27247;48.020;16.720;2024-02-21T08:00:57;7.63;;;2.30;;
41514;SDS011;27247;48.020;16.720;2024-02-21T08:05:07;10.87;;;2.23;;
41514;SDS011;27247;48.020;16.720;2024-02-21T08:09:18;10.18;;;2.60;;
41514;SDS011;27247;48.020;16.720;2024-02-21T08:13:29;5.78;;;2.50;;
41514;SDS011;27247;48.020;16.720;2024-02-21T08:17:41;9.63;;;2.72;;
41514;SDS011;27247;48.020;16.720;2024-02-21T08:21:51;7.03;;;2.15;;
41514;SDS011;27247;48.020;16.720;2024-02-21T08:26:05;7.57;;;2.63;;
41514;SDS011;27247;48.020;16.720;2024-02-21T08:30:15;6.70;;;1.80;;
41514;SDS011;27247;48.020;16.720;2024-02-21T08:34:25;7.80;;;1.98;;
41514;SDS011;27247;48.020;16.720;2024-02-21T08:38:36;12.13;;;2.23;;
41514;SDS011;27247;48.020;16.720;2024-02-21T08:42:46;9.17;;;2.53;;
41514;SDS011;27247;48.020;16.720;2024-02-21T08:46:57;6.43;;;1.95;;
41514;SDS011;27247;48.020;16.720;2024-02-21T08:51:07;9.53;;;1.97;;
41514;SDS011;27247;48.020;16.720;2024-02-21T08:55:18;9.17;;;2.33;;
41514;SDS011;27247;48.020;16.720;2024-02-21T08:59:28;6.57;;;2.33;;
41514;SDS011;27247;48.020;16.720;2024-02-21T09:03:38;11.07;;;2.50;;
41514;SDS011;27247;48.020;16.720;2024-02-21T09:07:49;6.18;;;2.13;;
41514;SDS011;27247;48.020;16.720;2024-02-21T09:11:59;7.67;;;2.37;;
41514;SDS011;27247;48.020;16.720;2024-02-21T09:16:15;8.18;;;1.90;;
41514;SDS011;27247;48.020;16.720;2024-02-21T09:20:26;9.23;;;2.37;;
41514;SDS011;27247;48.020;16.720;2024-02-21T09:24:36;5.15;;;2.10;;
41514;SDS011;27247;48.020;16.720;2024-02-21T09:28:46;10.17;;;2.70;;
41514;SDS011;27247;48.020;16.720;2024-02-21T09:32:57;9.33;;;2.50;;
41514;SDS011;27247;48.020;16.720;2024-02-21T09:37:09;9.15;;;2.55;;
41514;SDS011;27247;48.020;16.720;2024-02-21T09:41:25;7.87;;;3.23;;
41514;SDS011;27247;48.020;16.720;2024-02-21T09:45:37;10.82;;;3.30;;
41514;SDS011;27247;48.020;16.720;2024-02-21T09:49:48;5.80;;;2.22;;
41514;SDS011;27247;48.020;16.720;2024-02-21T09:53:59;9.05;;;2.40;;
41514;SDS011;27247;48.020;16.720;2024-02-21T09:58:09;8.23;;;2.10;;
41514;SDS011;27247;48.020;16.720;2024-02-21T10:02:20;6.63;;;2.20;;
41514;SDS011;27247;48.020;16.720;2024-02-21T10:06:30;7.23;;;1.90;;
41514;SDS011;27247;48.020;16.720;2024-02-21T10:10:42;6.93;;;2.42;;
41514;SDS011;27247;48.020;16.720;2024-02-21T10:15:00;13.90;;;2.15;;
41514;SDS011;27247;48.020;16.720;2024-02-21T10:19:18;7.53;;;2.72;;
41514;SDS011;27247;48.020;16.720;2024-02-21T10:23:29;4.53;;;1.85;;
41514;SDS011;27247;48.020;16.720;2024-02-21T10:27:50;7.93;;;2.40;;
41514;SDS011;27247;48.020;16.720;2024-02-21T10:36:18;7.13;;;2.38;;
41514;SDS011;27247;48.020;16.720;2024-02-21T10:40:29;6.32;;;2.70;;
41514;SDS011;27247;48.020;16.720;2024-02-21T10:44:40;11.52;;;2.13;;
41514;SDS011;27247;48.020;16.720;2024-02-21T10:49:00;7.10;;;2.05;;
41514;SDS011;27247;48.020;16.720;2024-02-21T10:53:20;10.18;;;2.20;;
41514;SDS011;27247;48.020;16.720;2024-02-21T10:57:45;9.13;;;2.95;;
41514;SDS011;27247;48.020;16.720;2024-02-21T11:01:56;9.10;;;2.50;;
41514;SDS011;27247;48.020;16.720;2024-02-21T11:06:06;10.93;;;2.50;;
41514;SDS011;27247;48.020;16.720;2024-02-21T11:10:25;8.63;;;2.63;;
41514;SDS011;27247;48.020;16.720;2024-02-21T11:14:37;9.50;;;2.53;;
41514;SDS011;27247;48.020;16.720;2024-02-21T11:18:49;7.15;;;2.47;;
41514;SDS011;27247;48.020;16.720;2024-02-21T11:23:00;9.77;;;2.20;;
41514;SDS011;27247;48.020;16.720;2024-02-21T11:27:20;7.25;;;1.80;;
41514;SDS011;27247;48.020;16.720;2024-02-21T11:31:41;12.30;;;2.50;;
41514;SDS011;27247;48.020;16.720;2024-02-21T11:35:52;9.32;;;3.08;;
41514;SDS011;27247;48.020;16.720;2024-02-21T11:40:03;8.13;;;2.60;;
41514;SDS011;27247;48.020;16.720;2024-02-21T11:44:14;5.68;;;1.85;;
41514;SDS011;27247;48.020;16.720;2024-02-21T11:48:24;6.27;;;2.30;;
41514;SDS011;27247;48.020;16.720;2024-02-21T11:52:35;7.45;;;1.30;;
41514;SDS011;27247;48.020;16.720;2024-02-21T11:56:45;10.47;;;2.03;;
41514;SDS011;27247;48.020;16.720;2024-02-21T12:00:56;9.30;;;3.87;;
41514;SDS011;27247;48.020;16.720;2024-02-21T12:05:06;7.13;;;2.60;;
41514;SDS011;27247;48.020;16.720;2024-02-21T12:09:17;10.27;;;3.47;;
41514;SDS011;27247;48.020;16.720;2024-02-21T12:13:28;10.63;;;4.38;;
41514;SDS011;27247;48.020;16.720;2024-02-21T12:17:39;5.93;;;2.77;;
41514;SDS011;27247;48.020;16.720;2024-02-21T12:21:50;9.40;;;2.78;;
41514;SDS011;27247;48.020;16.720;2024-02-21T12:26:00;6.18;;;2.25;;
41514;SDS011;27247;48.020;16.720;2024-02-21T12:30:18;4.03;;;1.17;;
41514;SDS011;27247;48.020;16.720;2024-02-21T12:34:29;7.65;;;1.80;;
41514;SDS011;27247;48.020;16.720;2024-02-21T12:38:42;6.43;;;1.85;;
41514;SDS011;27247;48.020;16.720;2024-02-21T12:42:53;6.10;;;1.70;;
41514;SDS011;27247;48.020;16.720;2024-02-21T12:47:06;6.35;;;1.33;;
41514;SDS011;27247;48.020;16.720;2024-02-21T12:51:27;5.78;;;2.05;;
41514;SDS011;27247;48.020;16.720;2024-02-21T12:55:38;5.05;;;1.65;;
41514;SDS011;27247;48.020;16.720;2024-02-21T12:59:50;4.00;;;1.55;;
41514;SDS011;27247;48.020;16.720;2024-02-21T13:04:01;7.45;;;2.08;;
41514;SDS011;27247;48.020;16.720;2024-02-21T13:08:14;7.35;;;3.40;;
41514;SDS011;27247;48.020;16.720;2024-02-21T13:16:56;4.80;;;1.42;;
41514;SDS011;27247;48.020;16.720;2024-02-21T13:21:06;8.20;;;1.53;;
41514;SDS011;27247;48.020;16.720;2024-02-21T13:25:17;5.83;;;1.70;;
41514;SDS011;27247;48.020;16.720;2024-02-21T13:29:30;2.83;;;1.23;;
41514;SDS011;27247;48.020;16.720;2024-02-21T13:33:40;5.07;;;1.53;;
41514;SDS011;27247;48.020;16.720;2024-02-21T13:37:51;5.53;;;1.52;;
41514;SDS011;27247;48.020;16.720;2024-02-21T13:42:02;7.53;;;1.47;;
41514;SDS011;27247;48.020;16.720;2024-02-21T13:46:15;6.22;;;1.38;;
41514;SDS011;27247;48.020;16.720;2024-02-21T13:50:30;4.37;;;1.30;;
41514;SDS011;27247;48.020;16.720;2024-02-21T13:54:41;7.20;;;0.98;;
41514;SDS011;27247;48.020;16.720;2024-02-21T13:58:52;8.95;;;1.42;;
41514;SDS011;27247;48.020;16.720;2024-02-21T14:03:02;5.73;;;1.70;;
41514;SDS011;27247;48.020;16.720;2024-02-21T14:07:13;4.43;;;1.20;;
41514;SDS011;27247;48.020;16.720;2024-02-21T14:11:23;6.73;;;1.77;;
41514;SDS011;27247;48.020;16.720;2024-02-21T14:15:34;4.10;;;1.35;;
41514;SDS011;27247;48.020;16.720;2024-02-21T14:19:44;6.63;;;1.50;;
41514;SDS011;27247;48.020;16.720;2024-02-21T14:23:54;5.30;;;1.90;;
41514;SDS011;27247;48.020;16.720;2024-02-21T14:28:07;7.72;;;1.85;;
41514;SDS011;27247;48.020;16.720;2024-02-21T14:32:19;5.65;;;1.58;;
41514;SDS011;27247;48.020;16.720;2024-02-21T14:36:30;9.90;;;2.05;;
41514;SDS011;27247;48.020;16.720;2024-02-21T14:40:40;4.13;;;1.77;;
41514;SDS011;27247;48.020;16.720;2024-02-21T14:44:51;6.18;;;1.60;;
41514;SDS011;27247;48.020;16.720;2024-02-21T14:49:01;7.72;;;2.00;;
41514;SDS011;27247;48.020;16.720;2024-02-21T14:53:12;4.70;;;1.58;;
41514;SDS011;27247;48.020;16.720;2024-02-21T14:57:23;7.57;;;1.90;;
41514;SDS011;27247;48.020;16.720;2024-02-21T15:01:36;3.47;;;1.05;;
41514;SDS011;27247;48.020;16.720;2024-02-21T15:05:50;6.03;;;1.95;;
41514;SDS011;27247;48.020;16.720;2024-02-21T15:10:06;2.93;;;1.50;;
41514;SDS011;27247;48.020;16.720;2024-02-21T15:14:17;5.75;;;1.15;;
41514;SDS011;27247;48.020;16.720;2024-02-21T15:18:28;7.30;;;1.43;;
41514;SDS011;27247;48.020;16.720;2024-02-21T15:22:38;8.60;;;1.80;;
41514;SDS011;27247;48.020;16.720;2024-02-21T15:26:48;6.93;;;1.70;;
41514;SDS011;27247;48.020;16.720;2024-02-21T15:30:59;5.17;;;1.47;;
41514;SDS011;27247;48.020;16.720;2024-02-21T15:35:13;7.88;;;2.10;;
41514;SDS011;27247;48.020;16.720;2024-02-21T15:39:24;8.20;;;2.42;;
41514;SDS011;27247;48.020;16.720;2024-02-21T15:43:36;7.82;;;2.80;;
41514;SDS011;27247;48.020;16.720;2024-02-21T15:47:48;7.57;;;2.63;;
41514;SDS011;27247;48.020;16.720;2024-02-21T15:51:58;11.82;;;2.50;;
41514;SDS011;27247;48.020;16.720;2024-02-21T15:56:08;5.93;;;2.10;;
41514;SDS011;27247;48.020;16.720;2024-02-21T16:00:19;12.30;;;4.03;;
41514;SDS011;27247;48.020;16.720;2024-02-21T16:04:29;13.13;;;6.10;;
41514;SDS011;27247;48.020;16.720;2024-02-21T16:08:41;12.98;;;4.00;;
41514;SDS011;27247;48.020;16.720;2024-02-21T16:12:51;6.30;;;2.50;;
41514;SDS011;27247;48.020;16.720;2024-02-21T16:17:02;8.18;;;2.80;;
41514;SDS011;27247;48.020;16.720;2024-02-21T16:21:15;15.30;;;4.40;;
41514;SDS011;27247;48.020;16.720;2024-02-21T16:25:26;9.27;;;2.45;;
41514;SDS011;27247;48.020;16.720;2024-02-21T16:29:36;6.80;;;1.67;;
41514;SDS011;27247;48.020;16.720;2024-02-21T16:33:47;7.95;;;2.83;;
41514;SDS011;27247;48.020;16.720;2024-02-21T16:37:57;10.30;;;1.77;;
41514;SDS011;27247;48.020;16.720;2024-02-21T16:42:08;8.98;;;1.70;;
41514;SDS011;27247;48.020;16.720;2024-02-21T16:46:20;5.07;;;1.60;;
41514;SDS011;27247;48.020;16.720;2024-02-21T16:50:30;4.13;;;1.77;;
41514;SDS011;27247;48.020;16.720;2024-02-21T16:54:41;5.07;;;1.77;;
41514;SDS011;27247;48.020;16.720;2024-02-21T16:58:51;7.57;;;1.90;;
41514;SDS011;27247;48.020;16.720;2024-02-21T17:03:02;6.70;;;1.80;;
41514;SDS011;27247;48.020;16.720;2024-02-21T17:07:12;4.72;;;1.70;;
41514;SDS011;27247;48.020;16.720;2024-02-21T17:11:23;6.60;;;2.37;;
41514;SDS011;27247;48.020;16.720;2024-02-21T17:15:33;8.83;;;2.47;;
41514;SDS011;27247;48.020;16.720;2024-02-21T17:19:43;6.70;;;2.17;;
41514;SDS011;27247;48.020;16.720;2024-02-21T17:23:54;8.10;;;2.70;;
41514;SDS011;27247;48.020;16.720;2024-02-21T17:28:05;5.05;;;2.25;;
41514;SDS011;27247;48.020;16.720;2024-02-21T17:32:15;6.93;;;2.92;;
41514;SDS011;27247;48.020;16.720;2024-02-21T17:36:25;7.70;;;3.23;;
41514;SDS011;27247;48.020;16.720;2024-02-21T17:40:36;13.20;;;3.58;;
41514;SDS011;27247;48.020;16.720;2024-02-21T17:44:46;9.33;;;3.00;;
41514;SDS011;27247;48.020;16.720;2024-02-21T17:48:57;10.70;;;3.50;;
41514;SDS011;27247;48.020;16.720;2024-02-21T17:53:08;9.90;;;3.70;;
41514;SDS011;27247;48.020;16.720;2024-02-21T17:57:19;9.37;;;3.10;;
41514;SDS011;27247;48.020;16.720;2024-02-21T18:01:29;9.63;;;4.03;;
41514;SDS011;27247;48.020;16.720;2024-02-21T18:05:41;6.18;;;3.25;;
41514;SDS011;27247;48.020;16.720;2024-02-21T18:09:51;8.32;;;3.13;;
41514;SDS011;27247;48.020;16.720;2024-02-21T18:14:01;10.63;;;3.27;;
41514;SDS011;27247;48.020;16.720;2024-02-21T18:18:14;10.23;;;3.85;;
41514;SDS011;27247;48.020;16.720;2024-02-21T18:22:25;10.17;;;3.23;;
41514;SDS011;27247;48.020;16.720;2024-02-21T18:26:39;6.72;;;3.10;;
41514;SDS011;27247;48.020;16.720;2024-02-21T18:30:50;8.73;;;3.80;;
41514;SDS011;27247;48.020;16.720;2024-02-21T18:35:01;7.78;;;2.72;;
41514;SDS011;27247;48.020;16.720;2024-02-21T18:39:15;10.05;;;3.38;;
41514;SDS011;27247;48.020;16.720;2024-02-21T18:43:26;8.27;;;3.28;;
41514;SDS011;27247;48.020;16.720;2024-02-21T18:47:36;8.50;;;4.03;;
41514;SDS011;27247;48.020;16.720;2024-02-21T18:51:47;11.80;;;6.57;;
41514;SDS011;27247;48.020;16.720;2024-02-21T18:55:57;14.23;;;4.88;;
41514;SDS011;27247;48.020;16.720;2024-02-21T19:00:08;13.07;;;4.85;;
41514;SDS011;27247;48.020;16.720;2024-02-21T19:04:20;10.32;;;4.75;;
41514;SDS011;27247;48.020;16.720;2024-02-21T19:08:34;11.77;;;5.63;;
41514;SDS011;27247;48.020;16.720;2024-02-21T19:12:44;9.82;;;5.10;;
41514;SDS011;27247;48.020;16.720;2024-02-21T19:16:55;10.93;;;4.63;;
41514;SDS011;27247;48.020;16.720;2024-02-21T19:21:06;11.15;;;4.60;;
41514;SDS011;27247;48.020;16.720;2024-02-21T19:25:18;9.45;;;5.65;;
41514;SDS011;27247;48.020;16.720;2024-02-21T19:29:31;12.48;;;4.63;;
41514;SDS011;27247;48.020;16.720;2024-02-21T19:33:41;10.48;;;4.95;;
41514;SDS011;27247;48.020;16.720;2024-02-21T19:37:52;18.58;;;7.63;;
41514;SDS011;27247;48.020;16.720;2024-02-21T19:42:03;14.90;;;4.85;;
41514;SDS011;27247;48.020;16.720;2024-02-21T19:46:13;16.80;;;6.35;;
41514;SDS011;27247;48.020;16.720;2024-02-21T19:50:24;8.70;;;4.05;;
41514;SDS011;27247;48.020;16.720;2024-02-21T19:54:41;11.77;;;5.50;;
41514;SDS011;27247;48.020;16.720;2024-02-21T19:58:51;6.28;;;3.40;;
41514;SDS011;27247;48.020;16.720;2024-02-21T20:03:02;5.28;;;2.88;;
41514;SDS011;27247;48.020;16.720;2024-02-21T20:07:16;7.72;;;3.10;;
41514;SDS011;27247;48.020;16.720;2024-02-21T20:11:26;5.65;;;2.55;;
41514;SDS011;27247;48.020;16.720;2024-02-21T20:15:39;4.18;;;2.35;;
41514;SDS011;27247;48.020;16.720;2024-02-21T20:19:52;8.88;;;3.28;;
41514;SDS011;27247;48.020;16.720;2024-02-21T20:24:02;6.57;;;2.72;;
41514;SDS011;27247;48.020;16.720;2024-02-21T20:28:14;10.25;;;3.20;;
41514;SDS011;27247;48.020;16.720;2024-02-21T20:32:24;11.65;;;3.45;;
41514;SDS011;27247;48.020;16.720;2024-02-21T20:36:35;6.30;;;3.10;;
41514;SDS011;27247;48.020;16.720;2024-02-21T20:40:45;9.98;;;3.22;;
41514;SDS011;27247;48.020;16.720;2024-02-21T20:44:55;8.40;;;4.30;;
41514;SDS011;27247;48.020;16.720;2024-02-21T20:49:06;13.45;;;5.90;;
41514;SDS011;27247;48.020;16.720;2024-02-21T20:53:16;12.45;;;5.00;;
41514;SDS011;27247;48.020;16.720;2024-02-21T20:57:27;8.00;;;4.38;;
41514;SDS011;27247;48.020;16.720;2024-02-21T21:01:38;7.10;;;4.13;;
41514;SDS011;27247;48.020;16.720;2024-02-21T21:05:48;10.50;;;4.55;;
41514;SDS011;27247;48.020;16.720;2024-02-21T21:10:01;10.35;;;4.47;;
41514;SDS011;27247;48.020;16.720;2024-02-21T21:14:14;8.85;;;4.05;;
41514;SDS011;27247;48.020;16.720;2024-02-21T21:18:24;10.60;;;4.75;;
41514;SDS011;27247;48.020;16.720;2024-02-21T21:22:35;8.50;;;5.03;;
41514;SDS011;27247;48.020;16.720;2024-02-21T21:26:46;12.73;;;5.90;;
41514;SDS011;27247;48.020;16.720;2024-02-21T21:30:56;14.53;;;6.73;;
41514;SDS011;27247;48.020;16.720;2024-02-21T21:35:07;13.30;;;6.47;;
41514;SDS011;27247;48.020;16.720;2024-02-21T21:39:17;12.82;;;6.80;;
41514;SDS011;27247;48.020;16.720;2024-02-21T21:43:28;14.63;;;7.38;;
41514;SDS011;27247;48.020;16.720;2024-02-21T21:47:38;15.40;;;7.93;;
41514;SDS011;27247;48.020;16.720;2024-02-21T21:51:49;18.92;;;8.00;;
41514;SDS011;27247;48.020;16.720;2024-02-21T21:55:59;16.00;;;8.13;;
41514;SDS011;27247;48.020;16.720;2024-02-21T22:00:10;15.15;;;8.38;;
41514;SDS011;27247;48.020;16.720;2024-02-21T22:04:21;14.57;;;7.40;;
41514;SDS011;27247;48.020;16.720;2024-02-21T22:08:31;13.70;;;7.33;;
41514;SDS011;27247;48.020;16.720;2024-02-21T22:12:41;17.80;;;8.20;;
41514;SDS011;27247;48.020;16.720;2024-02-21T22:16:52;16.53;;;7.43;;
41514;SDS011;27247;48.020;16.720;2024-02-21T22:21:02;14.50;;;8.43;;
41514;SDS011;27247;48.020;16.720;2024-02-21T22:25:12;17.50;;;8.57;;
41514;SDS011;27247;48.020;16.720;2024-02-21T22:29:23;16.10;;;9.00;;
41514;SDS011;27247;48.020;16.720;2024-02-21T22:33:33;14.50;;;8.05;;
41514;SDS011;27247;48.020;16.720;2024-02-21T22:37:43;17.80;;;9.02;;
41514;SDS011;27247;48.020;16.720;2024-02-21T22:41:54;21.00;;;8.90;;
41514;SDS011;27247;48.020;16.720;2024-02-21T22:46:04;15.35;;;8.32;;
41514;SDS011;27247;48.020;16.720;2024-02-21T22:50:15;14.95;;;8.40;;
41514;SDS011;27247;48.020;16.720;2024-02-21T22:54:26;14.07;;;8.10;;
41514;SDS011;27247;48.020;16.720;2024-02-21T22:58:36;16.67;;;8.73;;
41514;SDS011;27247;48.020;16.720;2024-02-21T23:02:47;21.03;;;8.47;;
41514;SDS011;27247;48.020;16.720;2024-02-21T23:06:59;14.77;;;8.63;;
41514;SDS011;27247;48.020;16.720;2024-02-21T23:11:09;15.33;;;7.90;;
41514;SDS011;27247;48.020;16.720;2024-02-21T23:15:19;23.37;;;9.03;;
41514;SDS011;27247;48.020;16.720;2024-02-21T23:19:30;16.05;;;8.43;;
41514;SDS011;27247;48.020;16.720;2024-02-21T23:23:40;15.87;;;8.77;;
41514;SDS011;27247;48.020;16.720;2024-02-21T23:27:50;18.57;;;9.60;;
41514;SDS011;27247;48.020;16.720;2024-02-21T23:32:01;18.50;;;9.20;;
41514;SDS011;27247;48.020;16.720;2024-02-21T23:36:11;19.50;;;8.95;;
41514;SDS011;27247;48.020;16.720;2024-02-21T23:40:23;20.55;;;8.93;;
41514;SDS011;27247;48.020;16.720;2024-02-21T23:44:34;19.40;;;7.63;;
41514;SDS011;27247;48.020;16.720;2024-02-21T23:48:44;14.50;;;8.17;;
41514;SDS011;27247;48.020;16.720;2024-02-21T23:52:54;12.17;;;8.37;;
41514;SDS011;27247;48.020;16.720;2024-02-21T23:57:05;16.50;;;8.90;;
